sensor_id;sensor_type;location;lat;lon;timestamp;P1;durP1;ratioP1;P2;durP2;ratioP2
24517;SDS011;12678;51.336;12.406;2023-05-02T00:02:16;8.77;;;4.53;;
24517;SDS011;12678;51.336;12.406;2023-05-02T00:04:42;12.90;;;5.40;;
24517;SDS011;12678;51.336;12.406;2023-05-02T00:07:08;7.82;;;4.75;;
24517;SDS011;12678;51.336;12.406;2023-05-02T00:09:33;8.45;;;5.15;;
24517;SDS011;12678;51.336;12.406;2023-05-02T00:11:59;7.55;;;4.50;;
24517;SDS011;12678;51.336;12.406;2023-05-02T00:14:24;7.95;;;5.03;;
24517;SDS011;12678;51.336;12.406;2023-05-02T00:16:50;11.15;;;4.78;;
24517;SDS011;12678;51.336;12.406;2023-05-02T00:19:16;6.88;;;4.30;;
24517;SDS011;12678;51.336;12.406;2023-05-02T00:21:41;9.30;;;5.00;;
24517;SDS011;12678;51.336;12.406;2023-05-02T00:24:07;9.55;;;4.93;;
24517;SDS011;12678;51.336;12.406;2023-05-02T00:26:33;13.35;;;5.50;;
24517;SDS011;12678;51.336;12.406;2023-05-02T00:28:58;6.50;;;4.30;;
24517;SDS011;12678;51.336;12.406;2023-05-02T00:31:25;9.55;;;4.53;;
24517;SDS011;12678;51.336;12.406;2023-05-02T00:33:50;9.57;;;5.60;;
24517;SDS011;12678;51.336;12.406;2023-05-02T00:36:16;9.30;;;4.82;;
24517;SDS011;12678;51.336;12.406;2023-05-02T00:38:43;8.88;;;5.32;;
24517;SDS011;12678;51.336;12.406;2023-05-02T00:41:09;10.02;;;5.10;;
24517;SDS011;12678;51.336;12.406;2023-05-02T00:43:35;10.00;;;5.07;;
24517;SDS011;12678;51.336;12.406;2023-05-02T00:46:03;8.20;;;5.63;;
24517;SDS011;12678;51.336;12.406;2023-05-02T00:48:29;8.48;;;5.22;;
24517;SDS011;12678;51.336;12.406;2023-05-02T00:50:55;8.50;;;5.60;;
24517;SDS011;12678;51.336;12.406;2023-05-02T00:53:21;10.82;;;6.13;;
24517;SDS011;12678;51.336;12.406;2023-05-02T00:55:47;6.32;;;4.63;;
24517;SDS011;12678;51.336;12.406;2023-05-02T00:58:14;9.60;;;5.30;;
24517;SDS011;12678;51.336;12.406;2023-05-02T01:12:05;9.90;;;5.82;;
24517;SDS011;12678;51.336;12.406;2023-05-02T01:14:40;8.93;;;5.00;;
24517;SDS011;12678;51.336;12.406;2023-05-02T01:17:09;9.30;;;4.85;;
24517;SDS011;12678;51.336;12.406;2023-05-02T01:19:38;8.95;;;4.53;;
24517;SDS011;12678;51.336;12.406;2023-05-02T01:22:07;8.10;;;4.93;;
24517;SDS011;12678;51.336;12.406;2023-05-02T01:24:42;10.18;;;5.07;;
24517;SDS011;12678;51.336;12.406;2023-05-02T01:27:36;9.75;;;4.97;;
24517;SDS011;12678;51.336;12.406;2023-05-02T01:30:11;12.27;;;4.80;;
24517;SDS011;12678;51.336;12.406;2023-05-02T01:32:41;8.50;;;4.65;;
24517;SDS011;12678;51.336;12.406;2023-05-02T01:35:09;7.63;;;4.45;;
24517;SDS011;12678;51.336;12.406;2023-05-02T01:37:37;7.70;;;4.35;;
24517;SDS011;12678;51.336;12.406;2023-05-02T01:40:04;8.10;;;4.90;;
24517;SDS011;12678;51.336;12.406;2023-05-02T01:42:33;13.35;;;4.68;;
24517;SDS011;12678;51.336;12.406;2023-05-02T01:45:02;6.50;;;4.55;;
24517;SDS011;12678;51.336;12.406;2023-05-02T01:47:30;9.50;;;4.55;;
24517;SDS011;12678;51.336;12.406;2023-05-02T01:49:59;10.45;;;5.13;;
24517;SDS011;12678;51.336;12.406;2023-05-02T01:52:27;6.82;;;4.35;;
24517;SDS011;12678;51.336;12.406;2023-05-02T01:54:54;8.68;;;4.32;;
24517;SDS011;12678;51.336;12.406;2023-05-02T01:57:23;8.75;;;5.00;;
24517;SDS011;12678;51.336;12.406;2023-05-02T01:59:50;8.15;;;4.63;;
24517;SDS011;12678;51.336;12.406;2023-05-02T02:02:17;8.20;;;4.03;;
24517;SDS011;12678;51.336;12.406;2023-05-02T02:04:43;11.38;;;4.40;;
24517;SDS011;12678;51.336;12.406;2023-05-02T02:07:12;7.65;;;4.28;;
24517;SDS011;12678;51.336;12.406;2023-05-02T02:09:38;11.13;;;4.28;;
24517;SDS011;12678;51.336;12.406;2023-05-02T02:14:36;8.10;;;4.10;;
24517;SDS011;12678;51.336;12.406;2023-05-02T02:17:11;13.55;;;5.05;;
24517;SDS011;12678;51.336;12.406;2023-05-02T02:19:46;6.95;;;3.47;;
24517;SDS011;12678;51.336;12.406;2023-05-02T02:22:12;9.40;;;4.32;;
24517;SDS011;12678;51.336;12.406;2023-05-02T02:24:39;8.70;;;3.60;;
24517;SDS011;12678;51.336;12.406;2023-05-02T02:27:06;9.00;;;3.80;;
24517;SDS011;12678;51.336;12.406;2023-05-02T02:29:31;6.63;;;3.90;;
24517;SDS011;12678;51.336;12.406;2023-05-02T02:31:57;6.30;;;3.90;;
24517;SDS011;12678;51.336;12.406;2023-05-02T02:34:23;9.80;;;3.85;;
24517;SDS011;12678;51.336;12.406;2023-05-02T02:36:59;7.35;;;4.05;;
24517;SDS011;12678;51.336;12.406;2023-05-02T02:42:14;6.10;;;4.28;;
24517;SDS011;12678;51.336;12.406;2023-05-02T02:47:41;5.72;;;3.95;;
24517;SDS011;12678;51.336;12.406;2023-05-02T02:50:29;7.15;;;3.90;;
24517;SDS011;12678;51.336;12.406;2023-05-02T02:53:02;6.38;;;4.07;;
24517;SDS011;12678;51.336;12.406;2023-05-02T02:55:35;16.70;;;7.82;;
24517;SDS011;12678;51.336;12.406;2023-05-02T03:00:52;10.43;;;6.53;;
24517;SDS011;12678;51.336;12.406;2023-05-02T03:03:19;12.43;;;6.90;;
24517;SDS011;12678;51.336;12.406;2023-05-02T03:05:48;9.65;;;5.82;;
24517;SDS011;12678;51.336;12.406;2023-05-02T03:08:15;22.38;;;9.13;;
24517;SDS011;12678;51.336;12.406;2023-05-02T03:10:40;13.50;;;5.97;;
24517;SDS011;12678;51.336;12.406;2023-05-02T03:13:06;6.57;;;3.95;;
24517;SDS011;12678;51.336;12.406;2023-05-02T03:15:48;8.18;;;4.00;;
24517;SDS011;12678;51.336;12.406;2023-05-02T03:18:32;10.57;;;5.03;;
24517;SDS011;12678;51.336;12.406;2023-05-02T03:20:58;10.60;;;4.68;;
24517;SDS011;12678;51.336;12.406;2023-05-02T03:23:25;6.80;;;4.80;;
24517;SDS011;12678;51.336;12.406;2023-05-02T03:25:50;11.48;;;6.82;;
24517;SDS011;12678;51.336;12.406;2023-05-02T03:28:16;8.55;;;4.97;;
24517;SDS011;12678;51.336;12.406;2023-05-02T03:30:42;6.88;;;3.97;;
24517;SDS011;12678;51.336;12.406;2023-05-02T03:33:08;8.77;;;5.22;;
24517;SDS011;12678;51.336;12.406;2023-05-02T03:35:34;10.05;;;4.97;;
24517;SDS011;12678;51.336;12.406;2023-05-02T03:37:59;7.65;;;4.00;;
24517;SDS011;12678;51.336;12.406;2023-05-02T03:40:28;14.93;;;4.80;;
24517;SDS011;12678;51.336;12.406;2023-05-02T03:42:54;12.55;;;5.82;;
24517;SDS011;12678;51.336;12.406;2023-05-02T03:45:20;10.85;;;5.03;;
24517;SDS011;12678;51.336;12.406;2023-05-02T03:47:45;8.70;;;4.13;;
24517;SDS011;12678;51.336;12.406;2023-05-02T03:50:11;16.15;;;6.13;;
24517;SDS011;12678;51.336;12.406;2023-05-02T03:52:36;11.95;;;6.85;;
24517;SDS011;12678;51.336;12.406;2023-05-02T03:55:02;8.45;;;5.50;;
24517;SDS011;12678;51.336;12.406;2023-05-02T03:57:31;12.70;;;7.32;;
24517;SDS011;12678;51.336;12.406;2023-05-02T03:59:57;9.05;;;3.90;;
24517;SDS011;12678;51.336;12.406;2023-05-02T04:02:23;9.60;;;5.57;;
24517;SDS011;12678;51.336;12.406;2023-05-02T04:04:49;14.18;;;6.78;;
24517;SDS011;12678;51.336;12.406;2023-05-02T04:07:15;9.80;;;6.05;;
24517;SDS011;12678;51.336;12.406;2023-05-02T04:09:43;22.65;;;4.50;;
24517;SDS011;12678;51.336;12.406;2023-05-02T04:12:09;7.43;;;4.38;;
24517;SDS011;12678;51.336;12.406;2023-05-02T04:14:35;7.45;;;4.20;;
24517;SDS011;12678;51.336;12.406;2023-05-02T04:17:01;10.70;;;5.00;;
24517;SDS011;12678;51.336;12.406;2023-05-02T04:19:26;8.55;;;5.57;;
24517;SDS011;12678;51.336;12.406;2023-05-02T04:21:52;8.05;;;5.22;;
24517;SDS011;12678;51.336;12.406;2023-05-02T04:24:18;5.68;;;3.53;;
24517;SDS011;12678;51.336;12.406;2023-05-02T04:26:44;9.90;;;5.18;;
24517;SDS011;12678;51.336;12.406;2023-05-02T04:29:12;9.32;;;4.85;;
24517;SDS011;12678;51.336;12.406;2023-05-02T04:31:38;11.50;;;4.82;;
24517;SDS011;12678;51.336;12.406;2023-05-02T04:34:05;6.28;;;4.22;;
24517;SDS011;12678;51.336;12.406;2023-05-02T04:36:31;7.82;;;4.30;;
24517;SDS011;12678;51.336;12.406;2023-05-02T04:38:58;6.10;;;3.70;;
24517;SDS011;12678;51.336;12.406;2023-05-02T04:41:24;7.07;;;3.35;;
24517;SDS011;12678;51.336;12.406;2023-05-02T04:43:50;4.72;;;3.10;;
24517;SDS011;12678;51.336;12.406;2023-05-02T04:46:16;5.20;;;2.72;;
24517;SDS011;12678;51.336;12.406;2023-05-02T04:48:42;4.68;;;3.30;;
24517;SDS011;12678;51.336;12.406;2023-05-02T04:51:08;8.90;;;3.00;;
24517;SDS011;12678;51.336;12.406;2023-05-02T04:53:34;4.10;;;2.88;;
24517;SDS011;12678;51.336;12.406;2023-05-02T04:56:01;4.22;;;2.92;;
24517;SDS011;12678;51.336;12.406;2023-05-02T04:58:26;3.20;;;2.53;;
24517;SDS011;12678;51.336;12.406;2023-05-02T05:00:52;6.70;;;3.13;;
24517;SDS011;12678;51.336;12.406;2023-05-02T05:03:18;6.13;;;2.90;;
24517;SDS011;12678;51.336;12.406;2023-05-02T05:05:44;6.70;;;3.00;;
24517;SDS011;12678;51.336;12.406;2023-05-02T05:08:10;9.23;;;3.08;;
24517;SDS011;12678;51.336;12.406;2023-05-02T05:10:36;6.43;;;2.40;;
24517;SDS011;12678;51.336;12.406;2023-05-02T05:13:01;6.95;;;3.15;;
24517;SDS011;12678;51.336;12.406;2023-05-02T05:15:28;5.70;;;3.08;;
24517;SDS011;12678;51.336;12.406;2023-05-02T05:17:54;6.97;;;3.65;;
24517;SDS011;12678;51.336;12.406;2023-05-02T05:20:19;7.05;;;2.53;;
24517;SDS011;12678;51.336;12.406;2023-05-02T05:22:45;6.15;;;2.80;;
24517;SDS011;12678;51.336;12.406;2023-05-02T05:25:11;4.97;;;3.13;;
24517;SDS011;12678;51.336;12.406;2023-05-02T05:27:37;10.73;;;2.80;;
24517;SDS011;12678;51.336;12.406;2023-05-02T05:30:03;5.40;;;2.75;;
24517;SDS011;12678;51.336;12.406;2023-05-02T05:32:31;5.47;;;3.00;;
24517;SDS011;12678;51.336;12.406;2023-05-02T05:34:57;8.23;;;3.17;;
24517;SDS011;12678;51.336;12.406;2023-05-02T05:37:23;7.28;;;3.58;;
24517;SDS011;12678;51.336;12.406;2023-05-02T05:39:49;25.90;;;4.80;;
24517;SDS011;12678;51.336;12.406;2023-05-02T05:42:14;6.78;;;3.65;;
24517;SDS011;12678;51.336;12.406;2023-05-02T05:44:40;8.90;;;3.58;;
24517;SDS011;12678;51.336;12.406;2023-05-02T05:47:06;11.45;;;2.88;;
24517;SDS011;12678;51.336;12.406;2023-05-02T05:49:32;7.95;;;3.50;;
24517;SDS011;12678;51.336;12.406;2023-05-02T05:52:00;18.30;;;4.03;;
24517;SDS011;12678;51.336;12.406;2023-05-02T05:54:26;14.50;;;3.05;;
24517;SDS011;12678;51.336;12.406;2023-05-02T05:56:52;7.53;;;3.50;;
24517;SDS011;12678;51.336;12.406;2023-05-02T05:59:18;8.23;;;4.18;;
24517;SDS011;12678;51.336;12.406;2023-05-02T06:01:44;13.68;;;4.63;;
24517;SDS011;12678;51.336;12.406;2023-05-02T06:04:10;6.93;;;3.40;;
24517;SDS011;12678;51.336;12.406;2023-05-02T06:06:36;11.07;;;3.70;;
24517;SDS011;12678;51.336;12.406;2023-05-02T06:09:02;6.88;;;3.20;;
24517;SDS011;12678;51.336;12.406;2023-05-02T06:11:28;5.07;;;3.05;;
24517;SDS011;12678;51.336;12.406;2023-05-02T06:13:54;7.55;;;2.50;;
24517;SDS011;12678;51.336;12.406;2023-05-02T06:16:20;5.63;;;3.17;;
24517;SDS011;12678;51.336;12.406;2023-05-02T06:18:46;5.32;;;3.28;;
24517;SDS011;12678;51.336;12.406;2023-05-02T06:21:12;7.53;;;3.03;;
24517;SDS011;12678;51.336;12.406;2023-05-02T06:23:39;3.65;;;2.38;;
24517;SDS011;12678;51.336;12.406;2023-05-02T06:26:05;10.75;;;3.15;;
24517;SDS011;12678;51.336;12.406;2023-05-02T06:28:30;3.47;;;2.72;;
24517;SDS011;12678;51.336;12.406;2023-05-02T06:30:57;5.68;;;3.03;;
24517;SDS011;12678;51.336;12.406;2023-05-02T06:33:24;8.60;;;4.65;;
24517;SDS011;12678;51.336;12.406;2023-05-02T06:35:51;3.55;;;2.83;;
24517;SDS011;12678;51.336;12.406;2023-05-02T06:38:17;9.30;;;2.90;;
24517;SDS011;12678;51.336;12.406;2023-05-02T06:40:43;6.40;;;2.88;;
24517;SDS011;12678;51.336;12.406;2023-05-02T06:43:12;5.10;;;3.08;;
24517;SDS011;12678;51.336;12.406;2023-05-02T06:45:38;7.18;;;3.40;;
24517;SDS011;12678;51.336;12.406;2023-05-02T06:48:04;9.05;;;3.50;;
24517;SDS011;12678;51.336;12.406;2023-05-02T06:50:31;5.80;;;3.13;;
24517;SDS011;12678;51.336;12.406;2023-05-02T06:52:56;7.00;;;3.60;;
24517;SDS011;12678;51.336;12.406;2023-05-02T06:55:22;8.48;;;3.90;;
24517;SDS011;12678;51.336;12.406;2023-05-02T06:57:48;9.68;;;3.42;;
24517;SDS011;12678;51.336;12.406;2023-05-02T07:00:18;7.07;;;2.92;;
24517;SDS011;12678;51.336;12.406;2023-05-02T07:02:45;12.32;;;3.97;;
24517;SDS011;12678;51.336;12.406;2023-05-02T07:05:12;7.18;;;3.53;;
24517;SDS011;12678;51.336;12.406;2023-05-02T07:07:39;6.63;;;3.33;;
24517;SDS011;12678;51.336;12.406;2023-05-02T07:10:09;7.88;;;2.90;;
24517;SDS011;12678;51.336;12.406;2023-05-02T07:12:35;6.57;;;3.45;;
24517;SDS011;12678;51.336;12.406;2023-05-02T07:15:01;16.58;;;3.40;;
24517;SDS011;12678;51.336;12.406;2023-05-02T07:17:27;6.32;;;2.85;;
24517;SDS011;12678;51.336;12.406;2023-05-02T07:19:52;5.07;;;3.10;;
24517;SDS011;12678;51.336;12.406;2023-05-02T07:22:19;5.60;;;3.45;;
24517;SDS011;12678;51.336;12.406;2023-05-02T07:24:45;7.30;;;2.90;;
24517;SDS011;12678;51.336;12.406;2023-05-02T07:27:11;7.72;;;3.30;;
24517;SDS011;12678;51.336;12.406;2023-05-02T07:29:37;9.30;;;4.05;;
24517;SDS011;12678;51.336;12.406;2023-05-02T07:32:04;6.70;;;3.20;;
24517;SDS011;12678;51.336;12.406;2023-05-02T07:34:30;11.18;;;4.82;;
24517;SDS011;12678;51.336;12.406;2023-05-02T07:36:57;10.30;;;4.10;;
24517;SDS011;12678;51.336;12.406;2023-05-02T07:39:23;10.68;;;4.47;;
24517;SDS011;12678;51.336;12.406;2023-05-02T07:41:52;14.30;;;4.75;;
24517;SDS011;12678;51.336;12.406;2023-05-02T07:44:18;10.55;;;3.95;;
24517;SDS011;12678;51.336;12.406;2023-05-02T07:46:45;9.52;;;4.65;;
24517;SDS011;12678;51.336;12.406;2023-05-02T07:49:11;13.27;;;4.30;;
24517;SDS011;12678;51.336;12.406;2023-05-02T07:51:37;8.27;;;3.75;;
24517;SDS011;12678;51.336;12.406;2023-05-02T07:54:13;11.70;;;4.22;;
24517;SDS011;12678;51.336;12.406;2023-05-02T07:56:41;10.25;;;4.22;;
24517;SDS011;12678;51.336;12.406;2023-05-02T07:59:07;9.18;;;4.70;;
24517;SDS011;12678;51.336;12.406;2023-05-02T08:01:34;8.45;;;4.03;;
24517;SDS011;12678;51.336;12.406;2023-05-02T08:04:00;12.07;;;5.13;;
24517;SDS011;12678;51.336;12.406;2023-05-02T08:06:26;11.13;;;5.20;;
24517;SDS011;12678;51.336;12.406;2023-05-02T08:08:52;8.35;;;4.93;;
24517;SDS011;12678;51.336;12.406;2023-05-02T08:11:18;14.90;;;6.43;;
24517;SDS011;12678;51.336;12.406;2023-05-02T08:13:46;11.20;;;5.47;;
24517;SDS011;12678;51.336;12.406;2023-05-02T08:16:12;11.88;;;6.30;;
24517;SDS011;12678;51.336;12.406;2023-05-02T08:18:38;19.50;;;7.95;;
24517;SDS011;12678;51.336;12.406;2023-05-02T08:21:05;18.63;;;9.40;;
24517;SDS011;12678;51.336;12.406;2023-05-02T08:23:30;22.10;;;11.05;;
24517;SDS011;12678;51.336;12.406;2023-05-02T08:25:56;19.00;;;9.52;;
24517;SDS011;12678;51.336;12.406;2023-05-02T08:28:22;19.80;;;9.15;;
24517;SDS011;12678;51.336;12.406;2023-05-02T08:30:48;20.60;;;9.73;;
24517;SDS011;12678;51.336;12.406;2023-05-02T08:33:13;18.60;;;9.30;;
24517;SDS011;12678;51.336;12.406;2023-05-02T08:35:39;30.05;;;10.00;;
24517;SDS011;12678;51.336;12.406;2023-05-02T08:38:05;20.77;;;9.82;;
24517;SDS011;12678;51.336;12.406;2023-05-02T08:40:35;22.05;;;9.65;;
24517;SDS011;12678;51.336;12.406;2023-05-02T08:43:02;22.67;;;10.15;;
24517;SDS011;12678;51.336;12.406;2023-05-02T08:45:30;25.08;;;10.93;;
24517;SDS011;12678;51.336;12.406;2023-05-02T08:48:06;23.30;;;10.50;;
24517;SDS011;12678;51.336;12.406;2023-05-02T08:50:40;19.98;;;9.38;;
24517;SDS011;12678;51.336;12.406;2023-05-02T08:53:08;24.77;;;10.52;;
24517;SDS011;12678;51.336;12.406;2023-05-02T08:55:35;24.38;;;10.80;;
24517;SDS011;12678;51.336;12.406;2023-05-02T08:58:06;22.05;;;10.40;;
24517;SDS011;12678;51.336;12.406;2023-05-02T09:00:40;21.92;;;9.50;;
24517;SDS011;12678;51.336;12.406;2023-05-02T09:03:48;27.25;;;10.85;;
24517;SDS011;12678;51.336;12.406;2023-05-02T09:08:40;26.50;;;9.70;;
24517;SDS011;12678;51.336;12.406;2023-05-02T09:11:09;21.40;;;10.10;;
24517;SDS011;12678;51.336;12.406;2023-05-02T09:16:03;23.85;;;10.85;;
24517;SDS011;12678;51.336;12.406;2023-05-02T09:18:38;22.60;;;10.02;;
24517;SDS011;12678;51.336;12.406;2023-05-02T09:21:21;24.98;;;11.40;;
24517;SDS011;12678;51.336;12.406;2023-05-02T09:23:53;22.92;;;11.77;;
24517;SDS011;12678;51.336;12.406;2023-05-02T09:26:23;27.73;;;11.80;;
24517;SDS011;12678;51.336;12.406;2023-05-02T09:28:54;26.08;;;12.13;;
24517;SDS011;12678;51.336;12.406;2023-05-02T09:31:24;23.05;;;11.65;;
24517;SDS011;12678;51.336;12.406;2023-05-02T09:34:21;21.65;;;10.68;;
24517;SDS011;12678;51.336;12.406;2023-05-02T09:36:49;24.40;;;10.77;;
24517;SDS011;12678;51.336;12.406;2023-05-02T09:39:24;23.40;;;10.88;;
24517;SDS011;12678;51.336;12.406;2023-05-02T09:41:53;24.80;;;11.65;;
24517;SDS011;12678;51.336;12.406;2023-05-02T09:44:20;27.42;;;11.63;;
24517;SDS011;12678;51.336;12.406;2023-05-02T09:46:48;24.73;;;10.40;;
24517;SDS011;12678;51.336;12.406;2023-05-02T09:49:18;23.23;;;12.05;;
24517;SDS011;12678;51.336;12.406;2023-05-02T09:51:45;23.83;;;10.65;;
24517;SDS011;12678;51.336;12.406;2023-05-02T09:54:14;20.63;;;10.70;;
24517;SDS011;12678;51.336;12.406;2023-05-02T09:56:59;21.27;;;10.65;;
24517;SDS011;12678;51.336;12.406;2023-05-02T09:59:25;22.10;;;10.45;;
24517;SDS011;12678;51.336;12.406;2023-05-02T10:01:55;19.33;;;9.68;;
24517;SDS011;12678;51.336;12.406;2023-05-02T10:04:22;20.40;;;10.38;;
24517;SDS011;12678;51.336;12.406;2023-05-02T10:06:49;22.27;;;10.57;;
24517;SDS011;12678;51.336;12.406;2023-05-02T10:09:16;23.25;;;11.25;;
24517;SDS011;12678;51.336;12.406;2023-05-02T10:11:43;21.10;;;8.90;;
24517;SDS011;12678;51.336;12.406;2023-05-02T10:14:10;20.50;;;10.13;;
24517;SDS011;12678;51.336;12.406;2023-05-02T10:16:38;23.80;;;9.60;;
24517;SDS011;12678;51.336;12.406;2023-05-02T10:19:38;19.23;;;10.23;;
24517;SDS011;12678;51.336;12.406;2023-05-02T10:22:14;19.23;;;10.35;;
24517;SDS011;12678;51.336;12.406;2023-05-02T10:24:43;22.05;;;10.40;;
24517;SDS011;12678;51.336;12.406;2023-05-02T10:27:10;20.38;;;10.13;;
24517;SDS011;12678;51.336;12.406;2023-05-02T10:29:36;17.17;;;8.85;;
24517;SDS011;12678;51.336;12.406;2023-05-02T10:32:05;19.75;;;9.00;;
24517;SDS011;12678;51.336;12.406;2023-05-02T10:34:32;15.82;;;8.75;;
24517;SDS011;12678;51.336;12.406;2023-05-02T10:37:00;16.05;;;7.25;;
24517;SDS011;12678;51.336;12.406;2023-05-02T10:39:26;15.82;;;6.85;;
24517;SDS011;12678;51.336;12.406;2023-05-02T10:41:53;11.63;;;6.18;;
24517;SDS011;12678;51.336;12.406;2023-05-02T10:44:41;13.73;;;7.22;;
24517;SDS011;12678;51.336;12.406;2023-05-02T10:47:25;12.23;;;6.65;;
24517;SDS011;12678;51.336;12.406;2023-05-02T10:49:54;13.52;;;6.40;;
24517;SDS011;12678;51.336;12.406;2023-05-02T10:52:24;17.02;;;7.47;;
24517;SDS011;12678;51.336;12.406;2023-05-02T10:55:12;17.20;;;7.83;;
24517;SDS011;12678;51.336;12.406;2023-05-02T10:58:24;29.20;;;8.20;;
24517;SDS011;12678;51.336;12.406;2023-05-02T11:00:26;14.40;;;5.82;;
24517;SDS011;12678;51.336;12.406;2023-05-02T11:02:54;12.32;;;6.47;;
24517;SDS011;12678;51.336;12.406;2023-05-02T11:05:20;11.82;;;7.25;;
24517;SDS011;12678;51.336;12.406;2023-05-02T11:07:47;14.32;;;7.53;;
24517;SDS011;12678;51.336;12.406;2023-05-02T11:12:45;16.35;;;7.20;;
24517;SDS011;12678;51.336;12.406;2023-05-02T11:15:13;14.95;;;6.75;;
24517;SDS011;12678;51.336;12.406;2023-05-02T11:20:32;8.88;;;5.15;;
24517;SDS011;12678;51.336;12.406;2023-05-02T11:25:41;10.52;;;6.35;;
24517;SDS011;12678;51.336;12.406;2023-05-02T11:31:04;15.85;;;5.40;;
24517;SDS011;12678;51.336;12.406;2023-05-02T11:33:57;10.68;;;5.85;;
24517;SDS011;12678;51.336;12.406;2023-05-02T11:41:37;8.27;;;4.65;;
24517;SDS011;12678;51.336;12.406;2023-05-02T11:44:06;6.53;;;4.15;;
24517;SDS011;12678;51.336;12.406;2023-05-02T11:46:32;7.65;;;3.90;;
24517;SDS011;12678;51.336;12.406;2023-05-02T11:49:00;6.43;;;3.50;;
24517;SDS011;12678;51.336;12.406;2023-05-02T11:51:26;5.97;;;3.88;;
24517;SDS011;12678;51.336;12.406;2023-05-02T11:53:52;8.00;;;4.50;;
24517;SDS011;12678;51.336;12.406;2023-05-02T11:56:22;7.13;;;4.38;;
24517;SDS011;12678;51.336;12.406;2023-05-02T11:59:00;12.43;;;5.07;;
24517;SDS011;12678;51.336;12.406;2023-05-02T12:01:27;7.97;;;4.80;;
24517;SDS011;12678;51.336;12.406;2023-05-02T12:04:01;7.97;;;4.70;;
24517;SDS011;12678;51.336;12.406;2023-05-02T12:06:31;7.55;;;4.35;;
24517;SDS011;12678;51.336;12.406;2023-05-02T12:09:12;7.93;;;3.53;;
24517;SDS011;12678;51.336;12.406;2023-05-02T12:14:31;6.20;;;3.72;;
24517;SDS011;12678;51.336;12.406;2023-05-02T12:16:57;8.98;;;4.18;;
24517;SDS011;12678;51.336;12.406;2023-05-02T12:19:24;7.38;;;3.95;;
24517;SDS011;12678;51.336;12.406;2023-05-02T12:21:50;8.15;;;4.18;;
24517;SDS011;12678;51.336;12.406;2023-05-02T12:24:16;6.40;;;4.15;;
24517;SDS011;12678;51.336;12.406;2023-05-02T12:26:42;7.68;;;4.28;;
24517;SDS011;12678;51.336;12.406;2023-05-02T12:29:07;6.68;;;4.30;;
24517;SDS011;12678;51.336;12.406;2023-05-02T12:31:33;7.38;;;4.18;;
24517;SDS011;12678;51.336;12.406;2023-05-02T12:33:59;8.80;;;4.45;;
24517;SDS011;12678;51.336;12.406;2023-05-02T12:36:25;6.15;;;4.13;;
24517;SDS011;12678;51.336;12.406;2023-05-02T12:38:55;4.47;;;3.35;;
24517;SDS011;12678;51.336;12.406;2023-05-02T12:41:29;6.57;;;4.65;;
24517;SDS011;12678;51.336;12.406;2023-05-02T12:44:02;10.35;;;4.50;;
24517;SDS011;12678;51.336;12.406;2023-05-02T12:46:29;6.07;;;4.07;;
24517;SDS011;12678;51.336;12.406;2023-05-02T12:49:02;8.15;;;3.55;;
24517;SDS011;12678;51.336;12.406;2023-05-02T12:51:33;7.05;;;4.28;;
24517;SDS011;12678;51.336;12.406;2023-05-02T12:53:59;6.55;;;3.83;;
24517;SDS011;12678;51.336;12.406;2023-05-02T12:56:24;7.03;;;4.60;;
24517;SDS011;12678;51.336;12.406;2023-05-02T12:58:56;5.78;;;3.90;;
24517;SDS011;12678;51.336;12.406;2023-05-02T13:01:28;6.03;;;4.50;;
24517;SDS011;12678;51.336;12.406;2023-05-02T13:03:53;6.00;;;3.55;;
24517;SDS011;12678;51.336;12.406;2023-05-02T13:06:19;6.32;;;4.10;;
24517;SDS011;12678;51.336;12.406;2023-05-02T13:08:46;6.63;;;3.67;;
24517;SDS011;12678;51.336;12.406;2023-05-02T13:11:11;4.70;;;3.53;;
24517;SDS011;12678;51.336;12.406;2023-05-02T13:13:38;5.05;;;3.03;;
24517;SDS011;12678;51.336;12.406;2023-05-02T13:16:04;4.90;;;3.15;;
24517;SDS011;12678;51.336;12.406;2023-05-02T13:18:31;3.78;;;2.92;;
24517;SDS011;12678;51.336;12.406;2023-05-02T13:20:56;5.00;;;3.25;;
24517;SDS011;12678;51.336;12.406;2023-05-02T13:23:22;3.55;;;2.50;;
24517;SDS011;12678;51.336;12.406;2023-05-02T13:25:47;7.40;;;3.53;;
24517;SDS011;12678;51.336;12.406;2023-05-02T13:28:13;4.60;;;2.60;;
24517;SDS011;12678;51.336;12.406;2023-05-02T13:30:39;8.45;;;3.75;;
24517;SDS011;12678;51.336;12.406;2023-05-02T13:33:05;5.45;;;3.00;;
24517;SDS011;12678;51.336;12.406;2023-05-02T13:35:30;8.10;;;3.55;;
24517;SDS011;12678;51.336;12.406;2023-05-02T13:37:56;9.65;;;3.60;;
24517;SDS011;12678;51.336;12.406;2023-05-02T13:40:21;8.82;;;3.72;;
24517;SDS011;12678;51.336;12.406;2023-05-02T13:42:47;9.13;;;3.65;;
24517;SDS011;12678;51.336;12.406;2023-05-02T13:45:13;4.53;;;2.83;;
24517;SDS011;12678;51.336;12.406;2023-05-02T13:47:38;7.38;;;3.13;;
24517;SDS011;12678;51.336;12.406;2023-05-02T13:50:04;4.93;;;3.30;;
24517;SDS011;12678;51.336;12.406;2023-05-02T13:52:30;10.23;;;3.70;;
24517;SDS011;12678;51.336;12.406;2023-05-02T13:54:56;11.30;;;3.78;;
24517;SDS011;12678;51.336;12.406;2023-05-02T13:57:21;10.88;;;3.30;;
24517;SDS011;12678;51.336;12.406;2023-05-02T13:59:47;14.85;;;3.65;;
24517;SDS011;12678;51.336;12.406;2023-05-02T14:02:13;9.85;;;3.40;;
24517;SDS011;12678;51.336;12.406;2023-05-02T14:04:39;11.50;;;3.13;;
24517;SDS011;12678;51.336;12.406;2023-05-02T14:07:04;4.78;;;2.80;;
24517;SDS011;12678;51.336;12.406;2023-05-02T14:09:30;8.40;;;3.85;;
24517;SDS011;12678;51.336;12.406;2023-05-02T14:11:55;6.82;;;3.20;;
24517;SDS011;12678;51.336;12.406;2023-05-02T14:14:22;6.60;;;3.25;;
24517;SDS011;12678;51.336;12.406;2023-05-02T14:16:48;10.40;;;3.70;;
24517;SDS011;12678;51.336;12.406;2023-05-02T14:19:14;5.53;;;2.90;;
24517;SDS011;12678;51.336;12.406;2023-05-02T14:21:39;6.35;;;3.47;;
24517;SDS011;12678;51.336;12.406;2023-05-02T14:24:05;7.68;;;4.15;;
24517;SDS011;12678;51.336;12.406;2023-05-02T14:26:31;9.80;;;3.63;;
24517;SDS011;12678;51.336;12.406;2023-05-02T14:28:57;6.72;;;3.42;;
24517;SDS011;12678;51.336;12.406;2023-05-02T14:31:23;14.02;;;3.53;;
24517;SDS011;12678;51.336;12.406;2023-05-02T14:33:49;7.72;;;3.65;;
24517;SDS011;12678;51.336;12.406;2023-05-02T14:36:14;7.45;;;2.90;;
24517;SDS011;12678;51.336;12.406;2023-05-02T14:38:40;13.52;;;3.38;;
24517;SDS011;12678;51.336;12.406;2023-05-02T14:41:06;9.80;;;3.22;;
24517;SDS011;12678;51.336;12.406;2023-05-02T14:43:31;8.23;;;3.63;;
24517;SDS011;12678;51.336;12.406;2023-05-02T14:45:57;7.43;;;3.22;;
24517;SDS011;12678;51.336;12.406;2023-05-02T14:48:23;7.13;;;3.20;;
24517;SDS011;12678;51.336;12.406;2023-05-02T14:50:48;11.57;;;4.05;;
24517;SDS011;12678;51.336;12.406;2023-05-02T14:53:14;8.40;;;3.30;;
24517;SDS011;12678;51.336;12.406;2023-05-02T14:55:40;5.13;;;3.03;;
24517;SDS011;12678;51.336;12.406;2023-05-02T14:58:06;8.73;;;3.22;;
24517;SDS011;12678;51.336;12.406;2023-05-02T15:00:36;7.50;;;3.10;;
24517;SDS011;12678;51.336;12.406;2023-05-02T15:03:03;8.13;;;2.58;;
24517;SDS011;12678;51.336;12.406;2023-05-02T15:05:29;7.43;;;2.63;;
24517;SDS011;12678;51.336;12.406;2023-05-02T15:07:55;7.57;;;2.80;;
24517;SDS011;12678;51.336;12.406;2023-05-02T15:10:21;5.28;;;2.53;;
24517;SDS011;12678;51.336;12.406;2023-05-02T15:12:46;7.55;;;3.00;;
24517;SDS011;12678;51.336;12.406;2023-05-02T15:15:15;10.88;;;2.85;;
24517;SDS011;12678;51.336;12.406;2023-05-02T15:17:41;8.23;;;3.13;;
24517;SDS011;12678;51.336;12.406;2023-05-02T15:20:07;6.82;;;2.67;;